Time,TemperatureF,DewpointF,PressureIn,WindDirection,WindDirectionDegrees,WindSpeedMPH,WindSpeedGustMPH,Humidity,HourlyPrecipIn,Conditions,Clouds,dailyrainin,SoftwareType,DateUTC
2013-03-27 00:01:00,35.0,17.0,29.98,SSE,150,0.0,-999.0,47,-99.99,,,-99.99,,2013-03-27 06:01:00,
2013-03-27 00:22:00,36.0,16.0,29.98,SSE,150,0.0,-999.0,43,-99.99,,,-99.99,,2013-03-27 06:22:00,
2013-03-27 00:32:00,36.0,18.0,29.98,SSE,150,0.0,-999.0,48,-99.99,,,-99.99,,2013-03-27 06:32:00,
2013-03-27 00:42:00,36.0,18.0,29.98,SSE,150,0.0,-999.0,48,-99.99,,,-99.99,,2013-03-27 06:42:00,
2013-03-27 00:52:00,35.0,18.0,29.98,SSE,150,0.0,-999.0,49,-99.99,,,-99.99,,2013-03-27 06:52:00,
2013-03-27 01:01:00,35.0,17.0,29.98,SSE,150,0.0,-999.0,47,-99.99,,,-99.99,,2013-03-27 07:01:00,
2013-03-27 01:12:00,35.0,17.0,29.98,SSE,150,0.0,-999.0,47,-99.99,,,-99.99,,2013-03-27 07:12:00,
2013-03-27 01:22:00,36.0,18.0,29.98,ENE,68,1.0,-999.0,47,-99.99,,,-99.99,,2013-03-27 07:22:00,
2013-03-27 01:32:00,41.0,20.0,29.97,NNW,329,5.0,-999.0,43,-99.99,,,-99.99,,2013-03-27 07:32:00,
2013-03-27 01:42:00,41.0,20.0,29.97,NNW,329,5.0,-999.0,43,-99.99,,,-99.99,,2013-03-27 07:42:00,
2013-03-27 01:53:00,41.0,21.0,29.98,NNW,327,1.0,-999.0,44,-99.99,,,-99.99,,2013-03-27 07:53:00,
2013-03-27 02:02:00,41.0,19.0,29.97,NE,42,1.0,-999.0,40,-99.99,,,-99.99,,2013-03-27 08:02:00,
2013-03-27 02:11:00,41.0,19.0,29.97,NE,42,1.0,-999.0,40,-99.99,,,-99.99,,2013-03-27 08:11:00,
2013-03-27 02:22:00,40.0,21.0,29.97,NE,34,1.0,-999.0,47,-99.99,,,-99.99,,2013-03-27 08:22:00,
2013-03-27 02:32:00,38.0,21.0,29.97,NE,34,0.0,-999.0,49,-99.99,,,-99.99,,2013-03-27 08:32:00,
2013-03-27 02:42:00,38.0,21.0,29.97,NE,34,0.0,-999.0,49,-99.99,,,-99.99,,2013-03-27 08:42:00,
2013-03-27 02:52:00,39.0,21.0,29.97,West,273,1.0,-999.0,49,-99.99,,,-99.99,,2013-03-27 08:52:00,
2013-03-27 03:01:00,40.0,21.0,29.97,SSE,156,0.0,-999.0,46,-99.99,,,-99.99,,2013-03-27 09:01:00,
2013-03-27 03:11:00,40.0,21.0,29.97,SSE,156,0.0,-999.0,46,-99.99,,,-99.99,,2013-03-27 09:11:00,
2013-03-27 03:21:00,39.0,21.0,29.95,SSE,156,0.0,-999.0,49,-99.99,,,-99.99,,2013-03-27 09:21:00,
2013-03-27 03:32:00,37.0,21.0,29.95,SE,139,0.0,-999.0,53,-99.99,,,-99.99,,2013-03-27 09:32:00,
2013-03-27 03:42:00,37.0,21.0,29.95,SE,139,0.0,-999.0,53,-99.99,,,-99.99,,2013-03-27 09:42:00,
2013-03-27 03:52:00,37.0,22.0,29.94,SE,138,0.0,-999.0,54,-99.99,,,-99.99,,2013-03-27 09:52:00,
2013-03-27 04:02:00,36.0,21.0,29.94,SE,139,0.0,-999.0,55,-99.99,,,-99.99,,2013-03-27 10:02:00,
2013-03-27 04:12:00,36.0,21.0,29.94,SE,139,0.0,-999.0,55,-99.99,,,-99.99,,2013-03-27 10:12:00,
2013-03-27 04:22:00,36.0,22.0,29.94,SE,139,0.0,-999.0,56,-99.99,,,-99.99,,2013-03-27 10:22:00,
2013-03-27 04:32:00,35.0,21.0,29.94,SE,139,0.0,-999.0,57,-99.99,,,-99.99,,2013-03-27 10:32:00,
2013-03-27 04:42:00,35.0,21.0,29.94,SE,139,0.0,-999.0,57,-99.99,,,-99.99,,2013-03-27 10:42:00,
2013-03-27 04:52:00,35.0,21.0,29.94,SE,139,0.0,-999.0,57,-99.99,,,-99.99,,2013-03-27 10:52:00,
2013-03-27 05:02:00,34.0,21.0,29.94,SE,138,0.0,-999.0,59,-99.99,,,-99.99,,2013-03-27 11:02:00,
2013-03-27 05:11:00,34.0,21.0,29.94,SE,138,0.0,-999.0,59,-99.99,,,-99.99,,2013-03-27 11:11:00,
2013-03-27 05:22:00,33.0,21.0,29.94,SE,139,0.0,-999.0,60,-99.99,,,-99.99,,2013-03-27 11:22:00,
2013-03-27 05:32:00,33.0,20.0,29.94,SE,139,0.0,-999.0,59,-99.99,,,-99.99,,2013-03-27 11:32:00,
2013-03-27 05:42:00,33.0,20.0,29.94,SE,139,0.0,-999.0,59,-99.99,,,-99.99,,2013-03-27 11:42:00,
2013-03-27 05:52:00,32.0,20.0,29.94,SE,139,0.0,-999.0,61,-99.99,,,-99.99,,2013-03-27 11:52:00,
2013-03-27 06:02:00,32.0,20.0,29.95,SE,139,0.0,-999.0,62,-99.99,,,-99.99,,2013-03-27 12:02:00,
2013-03-27 06:11:00,32.0,20.0,29.95,SE,139,0.0,-999.0,62,-99.99,,,-99.99,,2013-03-27 12:11:00,
2013-03-27 06:22:00,32.0,21.0,29.95,SE,138,0.0,-999.0,63,-99.99,,,-99.99,,2013-03-27 12:22:00,
2013-03-27 06:32:00,32.0,21.0,29.95,SE,138,0.0,-999.0,63,-99.99,,,-99.99,,2013-03-27 12:32:00,
2013-03-27 06:42:00,32.0,21.0,29.95,SE,138,0.0,-999.0,63,-99.99,,,-99.99,,2013-03-27 12:42:00,
2013-03-27 06:52:00,32.0,20.0,29.95,SE,139,0.0,-999.0,62,-99.99,,,-99.99,,2013-03-27 12:52:00,
2013-03-27 07:01:00,32.0,21.0,29.96,SE,139,0.0,-999.0,63,-99.99,,,-99.99,,2013-03-27 13:01:00,
2013-03-27 07:12:00,32.0,21.0,29.96,SE,139,0.0,-999.0,63,-99.99,,,-99.99,,2013-03-27 13:12:00,
2013-03-27 07:22:00,31.0,20.0,29.96,SE,139,0.0,-999.0,63,-99.99,,,-99.99,,2013-03-27 13:22:00,
2013-03-27 07:32:00,31.0,20.0,29.96,SE,139,0.0,-999.0,64,-99.99,,,-99.99,,2013-03-27 13:32:00,
2013-03-27 07:42:00,31.0,20.0,29.96,SE,139,0.0,-999.0,64,-99.99,,,-99.99,,2013-03-27 13:42:00,
2013-03-27 07:53:00,31.0,20.0,29.96,SE,138,0.0,-999.0,64,-99.99,,,-99.99,,2013-03-27 13:53:00,
2013-03-27 08:01:00,31.0,20.0,29.97,SE,139,0.0,-999.0,64,-99.99,,,-99.99,,2013-03-27 14:01:00,
2013-03-27 08:11:00,31.0,20.0,29.97,SE,139,0.0,-999.0,64,-99.99,,,-99.99,,2013-03-27 14:11:00,
2013-03-27 08:21:00,32.0,22.0,29.97,SE,139,0.0,-999.0,65,-99.99,,,-99.99,,2013-03-27 14:21:00,
2013-03-27 08:32:00,32.0,21.0,29.98,SE,139,0.0,-999.0,63,-99.99,,,-99.99,,2013-03-27 14:32:00,
2013-03-27 08:41:00,32.0,21.0,29.98,SE,139,0.0,-999.0,63,-99.99,,,-99.99,,2013-03-27 14:41:00,
2013-03-27 08:52:00,33.0,22.0,29.97,SE,139,0.0,-999.0,63,-99.99,,,-99.99,,2013-03-27 14:52:00,
2013-03-27 09:01:00,35.0,23.0,29.98,SE,138,0.0,-999.0,61,-99.99,,,-99.99,,2013-03-27 15:01:00,
2013-03-27 09:11:00,35.0,23.0,29.98,SE,138,0.0,-999.0,61,-99.99,,,-99.99,,2013-03-27 15:11:00,
2013-03-27 09:22:00,36.0,23.0,29.98,SE,139,0.0,-999.0,58,-99.99,,,-99.99,,2013-03-27 15:22:00,
2013-03-27 09:32:00,37.0,23.0,29.98,SE,138,0.0,-999.0,56,-99.99,,,-99.99,,2013-03-27 15:32:00,
2013-03-27 09:42:00,37.0,23.0,29.98,SE,138,0.0,-999.0,56,-99.99,,,-99.99,,2013-03-27 15:42:00,
2013-03-27 09:52:00,37.0,23.0,29.98,SE,138,0.0,-999.0,56,-99.99,,,-99.99,,2013-03-27 15:52:00,
2013-03-27 10:02:00,41.0,24.0,29.97,SE,139,1.0,-999.0,50,-99.99,,,-99.99,,2013-03-27 16:02:00,
2013-03-27 10:12:00,41.0,24.0,29.97,SE,139,1.0,-999.0,50,-99.99,,,-99.99,,2013-03-27 16:12:00,
2013-03-27 10:22:00,42.0,22.0,29.97,SE,138,1.0,-999.0,45,-99.99,,,-99.99,,2013-03-27 16:22:00,
2013-03-27 10:32:00,44.0,22.0,29.97,SE,140,1.0,-999.0,42,-99.99,,,-99.99,,2013-03-27 16:32:00,
2013-03-27 10:42:00,44.0,22.0,29.97,SE,140,1.0,-999.0,42,-99.99,,,-99.99,,2013-03-27 16:42:00,
2013-03-27 10:52:00,45.0,22.0,29.97,East,95,2.0,-999.0,39,-99.99,,,-99.99,,2013-03-27 16:52:00,
2013-03-27 11:02:00,46.0,21.0,29.97,South,183,3.0,-999.0,37,-99.99,,,-99.99,,2013-03-27 17:02:00,
2013-03-27 11:11:00,46.0,21.0,29.97,South,183,3.0,-999.0,37,-99.99,,,-99.99,,2013-03-27 17:11:00,
2013-03-27 11:22:00,47.0,21.0,29.96,East,91,3.0,-999.0,36,-99.99,,,-99.99,,2013-03-27 17:22:00,
2013-03-27 11:32:00,49.0,20.0,29.96,East,99,3.0,-999.0,31,-99.99,,,-99.99,,2013-03-27 17:32:00,
2013-03-27 11:44:00,49.0,20.0,29.96,East,99,3.0,-999.0,31,-99.99,,,-99.99,,2013-03-27 17:44:00,
2013-03-27 11:52:00,49.0,20.0,29.96,East,99,4.0,-999.0,31,-99.99,,,-99.99,,2013-03-27 17:52:00,
2013-03-27 12:02:00,50.0,21.0,29.95,South,175,3.0,-999.0,31,-99.99,,,-99.99,,2013-03-27 18:02:00,
2013-03-27 12:12:00,50.0,21.0,29.95,South,175,3.0,-999.0,31,-99.99,,,-99.99,,2013-03-27 18:12:00,
2013-03-27 12:22:00,50.0,21.0,29.94,ESE,115,4.0,-999.0,31,-99.99,,,-99.99,,2013-03-27 18:22:00,
2013-03-27 12:32:00,51.0,21.0,29.94,SSE,165,3.0,-999.0,30,-99.99,,,-99.99,,2013-03-27 18:32:00,
2013-03-27 12:42:00,51.0,21.0,29.94,SSE,165,3.0,-999.0,30,-99.99,,,-99.99,,2013-03-27 18:42:00,
2013-03-27 12:53:00,51.0,21.0,29.94,SSE,165,3.0,-999.0,30,-99.99,,,-99.99,,2013-03-27 18:53:00,
2013-03-27 13:01:00,51.0,19.0,29.94,SSW,195,4.0,-999.0,28,-99.99,,,-99.99,,2013-03-27 19:01:00,
2013-03-27 13:11:00,51.0,19.0,29.94,SSW,195,4.0,-999.0,28,-99.99,,,-99.99,,2013-03-27 19:11:00,
2013-03-27 13:21:00,52.0,20.0,29.93,SSE,168,4.0,-999.0,28,-99.99,,,-99.99,,2013-03-27 19:21:00,
2013-03-27 13:32:00,52.0,20.0,29.93,SSE,168,4.0,-999.0,28,-99.99,,,-99.99,,2013-03-27 19:32:00,
2013-03-27 13:42:00,52.0,20.0,29.93,SSE,168,4.0,-999.0,28,-99.99,,,-99.99,,2013-03-27 19:42:00,
2013-03-27 13:52:00,52.0,18.0,29.93,South,186,4.0,-999.0,26,-99.99,,,-99.99,,2013-03-27 19:52:00,
2013-03-27 14:02:00,53.0,22.0,29.93,South,179,4.0,-999.0,29,-99.99,,,-99.99,,2013-03-27 20:02:00,
2013-03-27 14:22:00,53.0,21.0,29.92,SSE,150,3.0,-999.0,28,-99.99,,,-99.99,,2013-03-27 20:22:00,
2013-03-27 14:31:00,52.0,21.0,29.91,ENE,78,4.0,-999.0,29,-99.99,,,-99.99,,2013-03-27 20:31:00,
2013-03-27 14:42:00,52.0,21.0,29.91,ENE,78,4.0,-999.0,29,-99.99,,,-99.99,,2013-03-27 20:42:00,
2013-03-27 14:52:00,53.0,19.0,29.91,South,180,5.0,-999.0,26,-99.99,,,-99.99,,2013-03-27 20:52:00,
2013-03-27 15:01:00,53.0,18.0,29.90,East,81,5.0,-999.0,25,-99.99,,,-99.99,,2013-03-27 21:01:00,
2013-03-27 15:12:00,53.0,18.0,29.90,East,81,5.0,-999.0,25,-99.99,,,-99.99,,2013-03-27 21:12:00,
2013-03-27 15:22:00,54.0,20.0,29.90,SSE,165,4.0,-999.0,26,-99.99,,,-99.99,,2013-03-27 21:22:00,
2013-03-27 15:32:00,53.0,17.0,29.88,South,173,4.0,-999.0,24,-99.99,,,-99.99,,2013-03-27 21:32:00,
2013-03-27 15:42:00,53.0,17.0,29.88,South,173,4.0,-999.0,24,-99.99,,,-99.99,,2013-03-27 21:42:00,
2013-03-27 15:52:00,52.0,17.0,29.89,East,80,4.0,-999.0,25,-99.99,,,-99.99,,2013-03-27 21:52:00,
2013-03-27 16:02:00,55.0,20.0,29.88,SSE,159,3.0,-999.0,25,-99.99,,,-99.99,,2013-03-27 22:02:00,
2013-03-27 16:23:00,54.0,19.0,29.89,WNW,299,4.0,-999.0,25,-99.99,,,-99.99,,2013-03-27 22:23:00,
2013-03-27 16:32:00,54.0,16.0,29.87,West,263,4.0,-999.0,22,-99.99,,,-99.99,,2013-03-27 22:32:00,
2013-03-27 16:42:00,54.0,16.0,29.87,West,263,4.0,-999.0,22,-99.99,,,-99.99,,2013-03-27 22:42:00,
2013-03-27 16:52:00,53.0,16.0,29.88,SW,229,4.0,-999.0,23,-99.99,,,-99.99,,2013-03-27 22:52:00,
2013-03-27 17:02:00,53.0,16.0,29.88,WSW,241,4.0,-999.0,23,-99.99,,,-99.99,,2013-03-27 23:02:00,
2013-03-27 17:22:00,53.0,17.0,29.88,WNW,298,5.0,-999.0,24,-99.99,,,-99.99,,2013-03-27 23:22:00,
2013-03-27 17:32:00,55.0,17.0,29.88,South,176,3.0,-999.0,22,-99.99,,,-99.99,,2013-03-27 23:32:00,
2013-03-27 17:42:00,55.0,17.0,29.88,South,176,3.0,-999.0,22,-99.99,,,-99.99,,2013-03-27 23:42:00,
2013-03-27 17:52:00,53.0,16.0,29.88,West,279,5.0,-999.0,23,-99.99,,,-99.99,,2013-03-27 23:52:00,
2013-03-27 18:01:00,53.0,15.0,29.88,SSE,162,3.0,-999.0,22,-99.99,,,-99.99,,2013-03-28 00:01:00,
2013-03-27 18:11:00,53.0,15.0,29.88,SSE,162,3.0,-999.0,22,-99.99,,,-99.99,,2013-03-28 00:11:00,
2013-03-27 18:22:00,52.0,15.0,29.88,NW,319,5.0,-999.0,23,-99.99,,,-99.99,,2013-03-28 00:22:00,
2013-03-27 18:31:00,51.0,15.0,29.88,West,280,4.0,-999.0,23,-99.99,,,-99.99,,2013-03-28 00:31:00,
2013-03-27 18:51:00,50.0,15.0,29.88,WNW,302,2.0,-999.0,24,-99.99,,,-99.99,,2013-03-28 00:51:00,
2013-03-27 19:01:00,50.0,14.0,29.89,WNW,296,3.0,-999.0,23,-99.99,,,-99.99,,2013-03-28 01:01:00,
2013-03-27 19:11:00,50.0,14.0,29.89,WNW,296,3.0,-999.0,23,-99.99,,,-99.99,,2013-03-28 01:11:00,
2013-03-27 19:21:00,49.0,13.0,29.89,WNW,284,2.0,-999.0,23,-99.99,,,-99.99,,2013-03-28 01:21:00,
2013-03-27 19:32:00,49.0,14.0,29.90,NW,319,3.0,-999.0,24,-99.99,,,-99.99,,2013-03-28 01:32:00,
2013-03-27 19:42:00,49.0,14.0,29.90,NW,319,3.0,-999.0,24,-99.99,,,-99.99,,2013-03-28 01:42:00,
2013-03-27 19:52:00,48.0,13.0,29.89,NNW,345,3.0,-999.0,24,-99.99,,,-99.99,,2013-03-28 01:52:00,
2013-03-27 20:02:00,48.0,13.0,29.90,North,355,0.0,-999.0,24,-99.99,,,-99.99,,2013-03-28 02:02:00,
2013-03-27 20:11:00,48.0,13.0,29.90,North,355,0.0,-999.0,24,-99.99,,,-99.99,,2013-03-28 02:11:00,
2013-03-27 20:22:00,47.0,13.0,29.90,North,355,0.0,-999.0,25,-99.99,,,-99.99,,2013-03-28 02:22:00,
2013-03-27 20:32:00,45.0,16.0,29.91,North,355,0.0,-999.0,31,-99.99,,,-99.99,,2013-03-28 02:32:00,
2013-03-27 20:42:00,45.0,16.0,29.91,North,355,0.0,-999.0,31,-99.99,,,-99.99,,2013-03-28 02:42:00,
2013-03-27 20:52:00,45.0,16.0,29.91,North,355,0.0,-999.0,31,-99.99,,,-99.99,,2013-03-28 02:52:00,
2013-03-27 21:02:00,44.0,14.0,29.92,North,355,0.0,-999.0,29,-99.99,,,-99.99,,2013-03-28 03:02:00,
2013-03-27 21:11:00,44.0,14.0,29.92,North,355,0.0,-999.0,29,-99.99,,,-99.99,,2013-03-28 03:11:00,
2013-03-27 21:22:00,42.0,16.0,29.92,North,355,0.0,-999.0,34,-99.99,,,-99.99,,2013-03-28 03:22:00,
2013-03-27 21:32:00,41.0,13.0,29.93,North,355,0.0,-999.0,32,-99.99,,,-99.99,,2013-03-28 03:32:00,
2013-03-27 21:42:00,41.0,13.0,29.93,North,355,0.0,-999.0,32,-99.99,,,-99.99,,2013-03-28 03:42:00,
2013-03-27 21:52:00,41.0,13.0,29.93,North,355,0.0,-999.0,31,-99.99,,,-99.99,,2013-03-28 03:52:00,
2013-03-27 22:02:00,40.0,15.0,29.93,North,355,0.0,-999.0,36,-99.99,,,-99.99,,2013-03-28 04:02:00,
2013-03-27 22:12:00,40.0,15.0,29.93,North,355,0.0,-999.0,36,-99.99,,,-99.99,,2013-03-28 04:12:00,
2013-03-27 22:22:00,40.0,14.0,29.94,North,355,0.0,-999.0,34,-99.99,,,-99.99,,2013-03-28 04:22:00,
2013-03-27 22:32:00,39.0,15.0,29.95,North,355,0.0,-999.0,37,-99.99,,,-99.99,,2013-03-28 04:32:00,
2013-03-27 22:42:00,39.0,15.0,29.95,North,355,0.0,-999.0,37,-99.99,,,-99.99,,2013-03-28 04:42:00,
2013-03-27 22:52:00,39.0,15.0,29.95,North,355,0.0,-999.0,37,-99.99,,,-99.99,,2013-03-28 04:52:00,
2013-03-27 23:02:00,37.0,14.0,29.94,North,355,0.0,-999.0,39,-99.99,,,-99.99,,2013-03-28 05:02:00,
2013-03-27 23:12:00,37.0,14.0,29.94,North,355,0.0,-999.0,39,-99.99,,,-99.99,,2013-03-28 05:12:00,
2013-03-27 23:22:00,37.0,15.0,29.95,North,355,0.0,-999.0,40,-99.99,,,-99.99,,2013-03-28 05:22:00,
2013-03-27 23:31:00,36.0,15.0,29.94,North,355,0.0,-999.0,41,-99.99,,,-99.99,,2013-03-28 05:31:00,
2013-03-27 23:42:00,36.0,15.0,29.94,North,355,0.0,-999.0,41,-99.99,,,-99.99,,2013-03-28 05:42:00,
2013-03-27 23:52:00,36.0,15.0,29.95,North,355,0.0,-999.0,42,-99.99,,,-99.99,,2013-03-28 05:52:00,